sensor_id;sensor_type;location;lat;lon;timestamp;temperature;humidity
71396;DHT22;59888;55.814;37.132;2023-06-26T00:00:20;19.69;45.05
71396;DHT22;59888;55.814;37.132;2023-06-26T00:02:47;19.70;45.07
71396;DHT22;59888;55.814;37.132;2023-06-26T00:05:14;19.69;44.99
71396;DHT22;59888;55.814;37.132;2023-06-26T00:07:40;19.61;44.99
71396;DHT22;59888;55.814;37.132;2023-06-26T00:10:06;19.59;45.25
71396;DHT22;59888;55.814;37.132;2023-06-26T00:12:32;19.61;45.38
71396;DHT22;59888;55.814;37.132;2023-06-26T00:14:59;19.70;45.68
71396;DHT22;59888;55.814;37.132;2023-06-26T00:17:25;19.74;46.03
71396;DHT22;59888;55.814;37.132;2023-06-26T00:19:56;19.80;46.54
71396;DHT22;59888;55.814;37.132;2023-06-26T00:22:22;19.80;45.96
71396;DHT22;59888;55.814;37.132;2023-06-26T00:24:49;19.81;45.77
71396;DHT22;59888;55.814;37.132;2023-06-26T00:27:15;19.81;45.79
71396;DHT22;59888;55.814;37.132;2023-06-26T00:29:43;19.73;45.70
71396;DHT22;59888;55.814;37.132;2023-06-26T00:32:11;19.71;46.20
71396;DHT22;59888;55.814;37.132;2023-06-26T00:34:38;19.68;46.20
71396;DHT22;59888;55.814;37.132;2023-06-26T00:37:03;19.61;46.41
71396;DHT22;59888;55.814;37.132;2023-06-26T00:39:30;19.59;46.70
71396;DHT22;59888;55.814;37.132;2023-06-26T00:41:56;19.60;46.78
71396;DHT22;59888;55.814;37.132;2023-06-26T00:44:22;19.57;46.92
71396;DHT22;59888;55.814;37.132;2023-06-26T00:46:48;19.56;47.13
71396;DHT22;59888;55.814;37.132;2023-06-26T00:49:20;19.55;47.79
71396;DHT22;59888;55.814;37.132;2023-06-26T00:51:46;19.55;47.27
71396;DHT22;59888;55.814;37.132;2023-06-26T00:54:12;19.53;47.21
71396;DHT22;59888;55.814;37.132;2023-06-26T00:56:41;19.53;47.22
71396;DHT22;59888;55.814;37.132;2023-06-26T00:59:12;19.43;48.15
71396;DHT22;59888;55.814;37.132;2023-06-26T01:01:38;19.40;47.96
71396;DHT22;59888;55.814;37.132;2023-06-26T01:04:04;19.35;48.39
71396;DHT22;59888;55.814;37.132;2023-06-26T01:06:32;19.32;48.42
71396;DHT22;59888;55.814;37.132;2023-06-26T01:09:04;19.36;48.02
71396;DHT22;59888;55.814;37.132;2023-06-26T01:11:30;19.39;47.87
71396;DHT22;59888;55.814;37.132;2023-06-26T01:13:59;19.42;47.73
71396;DHT22;59888;55.814;37.132;2023-06-26T01:16:28;19.39;47.54
71396;DHT22;59888;55.814;37.132;2023-06-26T01:18:55;19.32;47.74
71396;DHT22;59888;55.814;37.132;2023-06-26T01:21:22;19.39;48.36
71396;DHT22;59888;55.814;37.132;2023-06-26T01:23:58;19.37;47.79
71396;DHT22;59888;55.814;37.132;2023-06-26T01:26:26;19.31;48.03
71396;DHT22;59888;55.814;37.132;2023-06-26T01:28:53;19.29;47.93
71396;DHT22;59888;55.814;37.132;2023-06-26T01:31:20;19.28;47.79
71396;DHT22;59888;55.814;37.132;2023-06-26T01:33:47;19.26;47.98
71396;DHT22;59888;55.814;37.132;2023-06-26T01:36:13;19.27;47.86
71396;DHT22;59888;55.814;37.132;2023-06-26T01:38:39;19.28;48.39
71396;DHT22;59888;55.814;37.132;2023-06-26T01:41:06;19.33;48.08
71396;DHT22;59888;55.814;37.132;2023-06-26T01:46:22;19.30;48.24
71396;DHT22;59888;55.814;37.132;2023-06-26T01:51:30;19.28;48.21
71396;DHT22;59888;55.814;37.132;2023-06-26T01:53:57;19.26;48.11
71396;DHT22;59888;55.814;37.132;2023-06-26T01:56:24;19.26;48.07
71396;DHT22;59888;55.814;37.132;2023-06-26T01:58:51;19.21;48.28
71396;DHT22;59888;55.814;37.132;2023-06-26T02:01:21;19.20;48.24
71396;DHT22;59888;55.814;37.132;2023-06-26T02:03:47;19.22;48.28
71396;DHT22;59888;55.814;37.132;2023-06-26T02:06:13;19.31;48.14
71396;DHT22;59888;55.814;37.132;2023-06-26T02:08:40;19.36;48.06
71396;DHT22;59888;55.814;37.132;2023-06-26T02:11:06;19.42;48.04
71396;DHT22;59888;55.814;37.132;2023-06-26T02:13:32;19.42;48.23
71396;DHT22;59888;55.814;37.132;2023-06-26T02:15:58;19.50;48.28
71396;DHT22;59888;55.814;37.132;2023-06-26T02:18:24;19.54;48.02
71396;DHT22;59888;55.814;37.132;2023-06-26T02:20:50;19.55;47.88
71396;DHT22;59888;55.814;37.132;2023-06-26T02:23:16;19.60;47.88
71396;DHT22;59888;55.814;37.132;2023-06-26T02:25:42;19.65;47.78
71396;DHT22;59888;55.814;37.132;2023-06-26T02:28:09;19.70;47.60
71396;DHT22;59888;55.814;37.132;2023-06-26T02:30:35;19.75;47.59
71396;DHT22;59888;55.814;37.132;2023-06-26T02:33:01;19.75;47.83
71396;DHT22;59888;55.814;37.132;2023-06-26T02:35:27;19.80;47.79
71396;DHT22;59888;55.814;37.132;2023-06-26T02:37:53;19.83;47.78
71396;DHT22;59888;55.814;37.132;2023-06-26T02:40:24;19.86;48.25
71396;DHT22;59888;55.814;37.132;2023-06-26T02:42:51;19.92;47.75
71396;DHT22;59888;55.814;37.132;2023-06-26T02:45:18;19.97;47.68
71396;DHT22;59888;55.814;37.132;2023-06-26T02:47:44;20.02;47.55
71396;DHT22;59888;55.814;37.132;2023-06-26T02:50:21;20.04;48.37
71396;DHT22;59888;55.814;37.132;2023-06-26T02:53:20;20.13;47.83
71396;DHT22;59888;55.814;37.132;2023-06-26T02:55:46;20.20;47.57
71396;DHT22;59888;55.814;37.132;2023-06-26T02:58:14;20.27;47.50
71396;DHT22;59888;55.814;37.132;2023-06-26T03:00:39;20.32;47.50
71396;DHT22;59888;55.814;37.132;2023-06-26T03:03:12;20.41;47.83
71396;DHT22;59888;55.814;37.132;2023-06-26T03:05:39;20.42;47.36
71396;DHT22;59888;55.814;37.132;2023-06-26T03:08:05;20.49;47.28
71396;DHT22;59888;55.814;37.132;2023-06-26T03:10:32;20.56;47.18
71396;DHT22;59888;55.814;37.132;2023-06-26T03:12:58;20.62;47.05
71396;DHT22;59888;55.814;37.132;2023-06-26T03:15:25;20.68;46.99
71396;DHT22;59888;55.814;37.132;2023-06-26T03:17:51;20.70;46.96
71396;DHT22;59888;55.814;37.132;2023-06-26T03:20:23;20.77;46.93
71396;DHT22;59888;55.814;37.132;2023-06-26T03:22:54;20.85;46.89
71396;DHT22;59888;55.814;37.132;2023-06-26T03:25:21;21.02;46.66
71396;DHT22;59888;55.814;37.132;2023-06-26T03:27:49;21.10;46.55
71396;DHT22;59888;55.814;37.132;2023-06-26T03:30:17;21.18;46.41
71396;DHT22;59888;55.814;37.132;2023-06-26T03:32:46;21.28;46.40
71396;DHT22;59888;55.814;37.132;2023-06-26T03:35:12;21.42;46.10
71396;DHT22;59888;55.814;37.132;2023-06-26T03:37:38;21.55;46.20
71396;DHT22;59888;55.814;37.132;2023-06-26T03:40:07;21.70;45.72
71396;DHT22;59888;55.814;37.132;2023-06-26T03:42:33;21.88;45.58
71396;DHT22;59888;55.814;37.132;2023-06-26T03:45:00;22.07;45.30
71396;DHT22;59888;55.814;37.132;2023-06-26T03:47:28;22.26;45.09
71396;DHT22;59888;55.814;37.132;2023-06-26T03:49:55;22.48;44.77
71396;DHT22;59888;55.814;37.132;2023-06-26T03:52:21;22.76;44.42
71396;DHT22;59888;55.814;37.132;2023-06-26T03:54:47;22.99;43.97
71396;DHT22;59888;55.814;37.132;2023-06-26T03:57:16;23.21;43.70
71396;DHT22;59888;55.814;37.132;2023-06-26T03:59:42;23.42;43.31
71396;DHT22;59888;55.814;37.132;2023-06-26T04:02:08;23.59;43.01
71396;DHT22;59888;55.814;37.132;2023-06-26T04:04:34;23.79;42.56
71396;DHT22;59888;55.814;37.132;2023-06-26T04:07:00;23.98;42.27
71396;DHT22;59888;55.814;37.132;2023-06-26T04:09:26;24.15;41.87
71396;DHT22;59888;55.814;37.132;2023-06-26T04:11:53;24.33;41.47
71396;DHT22;59888;55.814;37.132;2023-06-26T04:14:19;24.45;41.08
71396;DHT22;59888;55.814;37.132;2023-06-26T04:16:44;24.53;40.95
71396;DHT22;59888;55.814;37.132;2023-06-26T04:19:11;24.54;40.73
71396;DHT22;59888;55.814;37.132;2023-06-26T04:21:37;24.57;40.62
71396;DHT22;59888;55.814;37.132;2023-06-26T04:24:04;24.59;40.58
71396;DHT22;59888;55.814;37.132;2023-06-26T04:26:29;24.66;40.36
71396;DHT22;59888;55.814;37.132;2023-06-26T04:28:56;24.80;40.30
71396;DHT22;59888;55.814;37.132;2023-06-26T04:31:22;24.95;40.10
71396;DHT22;59888;55.814;37.132;2023-06-26T04:33:48;25.08;39.97
71396;DHT22;59888;55.814;37.132;2023-06-26T04:36:17;25.22;39.77
71396;DHT22;59888;55.814;37.132;2023-06-26T04:38:44;25.35;39.48
71396;DHT22;59888;55.814;37.132;2023-06-26T04:41:10;25.47;38.92
71396;DHT22;59888;55.814;37.132;2023-06-26T04:43:37;25.58;38.67
71396;DHT22;59888;55.814;37.132;2023-06-26T04:46:03;25.74;38.44
71396;DHT22;59888;55.814;37.132;2023-06-26T04:48:29;25.89;38.04
71396;DHT22;59888;55.814;37.132;2023-06-26T04:50:57;25.96;37.88
71396;DHT22;59888;55.814;37.132;2023-06-26T04:53:24;26.10;37.81
71396;DHT22;59888;55.814;37.132;2023-06-26T04:55:52;26.24;37.58
71396;DHT22;59888;55.814;37.132;2023-06-26T04:58:19;26.36;37.17
71396;DHT22;59888;55.814;37.132;2023-06-26T05:00:45;26.43;37.08
71396;DHT22;59888;55.814;37.132;2023-06-26T05:03:13;26.49;36.53
71396;DHT22;59888;55.814;37.132;2023-06-26T05:05:39;26.56;36.43
71396;DHT22;59888;55.814;37.132;2023-06-26T05:08:21;26.66;35.92
71396;DHT22;59888;55.814;37.132;2023-06-26T05:10:48;26.73;36.02
71396;DHT22;59888;55.814;37.132;2023-06-26T05:13:14;26.80;35.85
71396;DHT22;59888;55.814;37.132;2023-06-26T05:15:46;26.82;35.47
71396;DHT22;59888;55.814;37.132;2023-06-26T05:18:12;26.93;35.16
71396;DHT22;59888;55.814;37.132;2023-06-26T05:20:39;26.98;35.22
71396;DHT22;59888;55.814;37.132;2023-06-26T05:23:05;27.10;34.89
71396;DHT22;59888;55.814;37.132;2023-06-26T05:25:32;27.20;34.49
71396;DHT22;59888;55.814;37.132;2023-06-26T05:27:59;27.24;33.99
71396;DHT22;59888;55.814;37.132;2023-06-26T05:30:32;27.27;34.03
71396;DHT22;59888;55.814;37.132;2023-06-26T05:33:02;27.34;33.84
71396;DHT22;59888;55.814;37.132;2023-06-26T05:35:29;27.39;33.34
71396;DHT22;59888;55.814;37.132;2023-06-26T05:37:57;27.36;33.28
71396;DHT22;59888;55.814;37.132;2023-06-26T05:40:25;27.36;33.25
71396;DHT22;59888;55.814;37.132;2023-06-26T05:42:51;27.30;33.14
71396;DHT22;59888;55.814;37.132;2023-06-26T05:45:17;27.30;33.14
71396;DHT22;59888;55.814;37.132;2023-06-26T05:47:43;27.27;32.64
71396;DHT22;59888;55.814;37.132;2023-06-26T05:50:09;27.26;33.08
71396;DHT22;59888;55.814;37.132;2023-06-26T05:52:36;27.29;33.07
71396;DHT22;59888;55.814;37.132;2023-06-26T05:55:05;27.38;32.87
71396;DHT22;59888;55.814;37.132;2023-06-26T05:57:32;27.47;33.03
71396;DHT22;59888;55.814;37.132;2023-06-26T05:59:58;27.51;32.99
71396;DHT22;59888;55.814;37.132;2023-06-26T06:02:24;27.55;32.80
71396;DHT22;59888;55.814;37.132;2023-06-26T06:04:50;27.57;32.51
71396;DHT22;59888;55.814;37.132;2023-06-26T06:07:16;27.58;32.60
71396;DHT22;59888;55.814;37.132;2023-06-26T06:09:42;27.55;32.35
71396;DHT22;59888;55.814;37.132;2023-06-26T06:12:08;27.56;32.60
71396;DHT22;59888;55.814;37.132;2023-06-26T06:14:34;27.60;32.16
71396;DHT22;59888;55.814;37.132;2023-06-26T06:17:01;27.65;32.04
71396;DHT22;59888;55.814;37.132;2023-06-26T06:19:27;27.71;32.23
71396;DHT22;59888;55.814;37.132;2023-06-26T06:21:53;27.71;32.03
71396;DHT22;59888;55.814;37.132;2023-06-26T06:24:19;27.66;32.07
71396;DHT22;59888;55.814;37.132;2023-06-26T06:26:46;27.71;31.87
71396;DHT22;59888;55.814;37.132;2023-06-26T06:29:12;27.79;32.08
71396;DHT22;59888;55.814;37.132;2023-06-26T06:31:38;27.76;31.64
71396;DHT22;59888;55.814;37.132;2023-06-26T06:34:04;27.79;31.53
71396;DHT22;59888;55.814;37.132;2023-06-26T06:36:30;27.82;31.72
71396;DHT22;59888;55.814;37.132;2023-06-26T06:38:56;27.89;31.86
71396;DHT22;59888;55.814;37.132;2023-06-26T06:41:22;27.98;31.41
71396;DHT22;59888;55.814;37.132;2023-06-26T06:43:48;28.01;31.32
71396;DHT22;59888;55.814;37.132;2023-06-26T06:46:14;28.04;31.32
71396;DHT22;59888;55.814;37.132;2023-06-26T06:48:40;28.03;31.07
71396;DHT22;59888;55.814;37.132;2023-06-26T06:51:06;28.04;31.21
71396;DHT22;59888;55.814;37.132;2023-06-26T06:53:32;28.04;31.48
71396;DHT22;59888;55.814;37.132;2023-06-26T06:55:57;28.08;31.12
71396;DHT22;59888;55.814;37.132;2023-06-26T06:58:23;28.20;31.01
71396;DHT22;59888;55.814;37.132;2023-06-26T07:00:49;28.26;30.90
71396;DHT22;59888;55.814;37.132;2023-06-26T07:03:17;28.28;30.35
71396;DHT22;59888;55.814;37.132;2023-06-26T07:05:43;28.37;30.29
71396;DHT22;59888;55.814;37.132;2023-06-26T07:08:10;28.42;30.59
71396;DHT22;59888;55.814;37.132;2023-06-26T07:10:51;28.48;29.64
71396;DHT22;59888;55.814;37.132;2023-06-26T07:13:17;28.64;30.25
71396;DHT22;59888;55.814;37.132;2023-06-26T07:15:43;28.73;30.09
71396;DHT22;59888;55.814;37.132;2023-06-26T07:18:16;28.73;30.02
71396;DHT22;59888;55.814;37.132;2023-06-26T07:20:42;28.60;30.13
71396;DHT22;59888;55.814;37.132;2023-06-26T07:23:08;28.54;29.74
71396;DHT22;59888;55.814;37.132;2023-06-26T07:25:34;28.57;30.13
71396;DHT22;59888;55.814;37.132;2023-06-26T07:28:01;28.69;29.19
71396;DHT22;59888;55.814;37.132;2023-06-26T07:30:27;28.73;28.88
71396;DHT22;59888;55.814;37.132;2023-06-26T07:32:52;28.78;28.92
71396;DHT22;59888;55.814;37.132;2023-06-26T07:35:19;28.75;26.65
71396;DHT22;59888;55.814;37.132;2023-06-26T07:37:45;28.75;28.21
71396;DHT22;59888;55.814;37.132;2023-06-26T07:40:11;28.85;28.13
71396;DHT22;59888;55.814;37.132;2023-06-26T07:42:37;28.80;28.15
71396;DHT22;59888;55.814;37.132;2023-06-26T07:45:03;28.72;27.95
71396;DHT22;59888;55.814;37.132;2023-06-26T07:47:36;28.74;27.97
71396;DHT22;59888;55.814;37.132;2023-06-26T07:50:05;28.76;27.95
71396;DHT22;59888;55.814;37.132;2023-06-26T07:52:31;28.76;27.25
71396;DHT22;59888;55.814;37.132;2023-06-26T07:54:57;28.74;27.56
71396;DHT22;59888;55.814;37.132;2023-06-26T07:57:24;28.79;27.55
71396;DHT22;59888;55.814;37.132;2023-06-26T07:59:50;28.89;27.11
71396;DHT22;59888;55.814;37.132;2023-06-26T08:02:16;29.02;27.45
71396;DHT22;59888;55.814;37.132;2023-06-26T08:04:43;29.05;27.52
71396;DHT22;59888;55.814;37.132;2023-06-26T08:07:09;28.97;27.37
71396;DHT22;59888;55.814;37.132;2023-06-26T08:09:35;28.95;27.09
71396;DHT22;59888;55.814;37.132;2023-06-26T08:12:02;29.05;27.16
71396;DHT22;59888;55.814;37.132;2023-06-26T08:14:28;29.17;27.16
71396;DHT22;59888;55.814;37.132;2023-06-26T08:16:54;29.23;26.88
71396;DHT22;59888;55.814;37.132;2023-06-26T08:19:20;29.31;27.15
71396;DHT22;59888;55.814;37.132;2023-06-26T08:21:46;29.26;26.85
71396;DHT22;59888;55.814;37.132;2023-06-26T08:24:14;29.20;26.84
71396;DHT22;59888;55.814;37.132;2023-06-26T08:26:50;29.14;26.94
71396;DHT22;59888;55.814;37.132;2023-06-26T08:29:16;29.01;26.85
71396;DHT22;59888;55.814;37.132;2023-06-26T08:31:42;28.89;26.98
71396;DHT22;59888;55.814;37.132;2023-06-26T08:34:09;28.82;26.71
71396;DHT22;59888;55.814;37.132;2023-06-26T08:36:35;28.79;27.16
71396;DHT22;59888;55.814;37.132;2023-06-26T08:39:01;28.97;27.10
71396;DHT22;59888;55.814;37.132;2023-06-26T08:41:27;29.14;26.47
71396;DHT22;59888;55.814;37.132;2023-06-26T08:43:53;29.32;26.58
71396;DHT22;59888;55.814;37.132;2023-06-26T08:46:19;29.45;25.73
71396;DHT22;59888;55.814;37.132;2023-06-26T08:48:49;29.59;25.75
71396;DHT22;59888;55.814;37.132;2023-06-26T08:51:21;29.74;25.28
71396;DHT22;59888;55.814;37.132;2023-06-26T08:53:55;29.79;25.82
71396;DHT22;59888;55.814;37.132;2023-06-26T08:56:22;29.68;25.81
71396;DHT22;59888;55.814;37.132;2023-06-26T08:58:49;29.59;25.60
71396;DHT22;59888;55.814;37.132;2023-06-26T09:01:15;29.38;25.98
71396;DHT22;59888;55.814;37.132;2023-06-26T09:03:41;29.31;26.07
71396;DHT22;59888;55.814;37.132;2023-06-26T09:06:07;29.31;25.47
71396;DHT22;59888;55.814;37.132;2023-06-26T09:08:34;29.39;26.27
71396;DHT22;59888;55.814;37.132;2023-06-26T09:11:00;29.52;25.97
71396;DHT22;59888;55.814;37.132;2023-06-26T09:13:28;29.54;25.35
71396;DHT22;59888;55.814;37.132;2023-06-26T09:15:55;29.54;25.21
71396;DHT22;59888;55.814;37.132;2023-06-26T09:18:21;29.44;25.48
71396;DHT22;59888;55.814;37.132;2023-06-26T09:20:48;29.26;25.97
71396;DHT22;59888;55.814;37.132;2023-06-26T09:23:14;29.13;26.09
71396;DHT22;59888;55.814;37.132;2023-06-26T09:25:40;29.05;26.12
71396;DHT22;59888;55.814;37.132;2023-06-26T09:28:07;28.99;26.40
71396;DHT22;59888;55.814;37.132;2023-06-26T09:30:40;28.93;25.76
71396;DHT22;59888;55.814;37.132;2023-06-26T09:33:17;28.98;25.94
71396;DHT22;59888;55.814;37.132;2023-06-26T09:35:44;29.06;25.82
71396;DHT22;59888;55.814;37.132;2023-06-26T09:38:12;29.17;26.29
71396;DHT22;59888;55.814;37.132;2023-06-26T09:40:38;29.27;25.97
71396;DHT22;59888;55.814;37.132;2023-06-26T09:43:07;29.34;25.88
71396;DHT22;59888;55.814;37.132;2023-06-26T09:45:39;29.32;24.76
71396;DHT22;59888;55.814;37.132;2023-06-26T09:48:06;29.35;25.78
71396;DHT22;59888;55.814;37.132;2023-06-26T09:50:35;29.38;25.78
71396;DHT22;59888;55.814;37.132;2023-06-26T09:53:09;29.30;24.87
71396;DHT22;59888;55.814;37.132;2023-06-26T09:55:36;29.36;25.78
71396;DHT22;59888;55.814;37.132;2023-06-26T09:58:06;29.56;25.84
71396;DHT22;59888;55.814;37.132;2023-06-26T10:00:32;29.62;25.66
71396;DHT22;59888;55.814;37.132;2023-06-26T10:02:59;29.54;25.30
71396;DHT22;59888;55.814;37.132;2023-06-26T10:05:25;29.45;25.26
71396;DHT22;59888;55.814;37.132;2023-06-26T10:07:52;29.29;25.23
71396;DHT22;59888;55.814;37.132;2023-06-26T10:10:24;29.12;25.16
71396;DHT22;59888;55.814;37.132;2023-06-26T10:15:40;28.64;25.77
71396;DHT22;59888;55.814;37.132;2023-06-26T10:18:10;28.33;26.21
71396;DHT22;59888;55.814;37.132;2023-06-26T10:20:37;28.17;26.47
71396;DHT22;59888;55.814;37.132;2023-06-26T10:23:05;28.13;26.62
71396;DHT22;59888;55.814;37.132;2023-06-26T10:25:37;28.00;26.55
71396;DHT22;59888;55.814;37.132;2023-06-26T10:28:08;27.91;26.81
71396;DHT22;59888;55.814;37.132;2023-06-26T10:30:35;27.83;27.02
71396;DHT22;59888;55.814;37.132;2023-06-26T10:33:02;27.78;27.22
71396;DHT22;59888;55.814;37.132;2023-06-26T10:35:30;27.76;27.23
71396;DHT22;59888;55.814;37.132;2023-06-26T10:38:05;27.80;26.99
71396;DHT22;59888;55.814;37.132;2023-06-26T10:40:44;27.85;26.96
71396;DHT22;59888;55.814;37.132;2023-06-26T10:43:12;27.87;27.23
71396;DHT22;59888;55.814;37.132;2023-06-26T10:45:48;27.87;26.80
71396;DHT22;59888;55.814;37.132;2023-06-26T10:48:29;27.90;26.96
71396;DHT22;59888;55.814;37.132;2023-06-26T10:50:56;27.93;27.20
71396;DHT22;59888;55.814;37.132;2023-06-26T10:53:23;27.95;27.23
71396;DHT22;59888;55.814;37.132;2023-06-26T10:56:04;27.97;26.86
71396;DHT22;59888;55.814;37.132;2023-06-26T10:58:33;27.99;26.96
71396;DHT22;59888;55.814;37.132;2023-06-26T11:03:48;28.00;27.01
71396;DHT22;59888;55.814;37.132;2023-06-26T11:06:19;28.00;27.42
71396;DHT22;59888;55.814;37.132;2023-06-26T11:09:00;27.95;27.38
71396;DHT22;59888;55.814;37.132;2023-06-26T11:14:18;27.89;27.55
71396;DHT22;59888;55.814;37.132;2023-06-26T11:16:47;27.85;27.58
71396;DHT22;59888;55.814;37.132;2023-06-26T11:19:14;27.84;27.63
71396;DHT22;59888;55.814;37.132;2023-06-26T11:21:42;27.81;27.64
71396;DHT22;59888;55.814;37.132;2023-06-26T11:24:10;27.79;27.74
71396;DHT22;59888;55.814;37.132;2023-06-26T11:26:41;27.81;27.46
71396;DHT22;59888;55.814;37.132;2023-06-26T11:29:08;27.80;27.64
71396;DHT22;59888;55.814;37.132;2023-06-26T11:31:36;27.80;27.49
71396;DHT22;59888;55.814;37.132;2023-06-26T11:34:11;27.81;27.63
71396;DHT22;59888;55.814;37.132;2023-06-26T11:36:38;27.81;27.49
71396;DHT22;59888;55.814;37.132;2023-06-26T11:39:05;27.90;27.48
71396;DHT22;59888;55.814;37.132;2023-06-26T11:41:35;28.01;27.35
71396;DHT22;59888;55.814;37.132;2023-06-26T11:44:04;28.21;27.12
71396;DHT22;59888;55.814;37.132;2023-06-26T11:46:30;28.47;27.16
71396;DHT22;59888;55.814;37.132;2023-06-26T11:49:06;28.84;25.97
71396;DHT22;59888;55.814;37.132;2023-06-26T11:51:33;29.28;25.94
71396;DHT22;59888;55.814;37.132;2023-06-26T11:54:03;29.64;24.99
71396;DHT22;59888;55.814;37.132;2023-06-26T11:56:30;30.00;24.81
71396;DHT22;59888;55.814;37.132;2023-06-26T11:59:19;30.34;23.49
71396;DHT22;59888;55.814;37.132;2023-06-26T12:01:45;30.53;24.37
71396;DHT22;59888;55.814;37.132;2023-06-26T12:04:12;30.69;24.29
71396;DHT22;59888;55.814;37.132;2023-06-26T12:06:43;30.76;23.71
71396;DHT22;59888;55.814;37.132;2023-06-26T12:09:28;30.93;23.19
71396;DHT22;59888;55.814;37.132;2023-06-26T12:11:56;30.89;23.66
71396;DHT22;59888;55.814;37.132;2023-06-26T12:14:23;30.98;23.47
71396;DHT22;59888;55.814;37.132;2023-06-26T12:16:53;31.05;23.29
71396;DHT22;59888;55.814;37.132;2023-06-26T12:19:25;31.09;23.35
71396;DHT22;59888;55.814;37.132;2023-06-26T12:21:54;31.13;23.50
71396;DHT22;59888;55.814;37.132;2023-06-26T12:24:23;31.26;23.38
71396;DHT22;59888;55.814;37.132;2023-06-26T12:26:55;31.42;21.69
71396;DHT22;59888;55.814;37.132;2023-06-26T12:29:33;31.56;22.00
71396;DHT22;59888;55.814;37.132;2023-06-26T12:32:00;31.90;22.56
71396;DHT22;59888;55.814;37.132;2023-06-26T12:34:28;32.13;22.47
71396;DHT22;59888;55.814;37.132;2023-06-26T12:37:00;32.09;21.96
71396;DHT22;59888;55.814;37.132;2023-06-26T12:39:27;31.95;22.52
71396;DHT22;59888;55.814;37.132;2023-06-26T12:41:55;31.70;22.89
71396;DHT22;59888;55.814;37.132;2023-06-26T12:44:28;31.48;22.75
71396;DHT22;59888;55.814;37.132;2023-06-26T12:46:58;31.20;22.76
71396;DHT22;59888;55.814;37.132;2023-06-26T12:49:35;31.01;23.17
71396;DHT22;59888;55.814;37.132;2023-06-26T12:52:04;30.90;23.72
71396;DHT22;59888;55.814;37.132;2023-06-26T12:54:30;30.77;23.82
71396;DHT22;59888;55.814;37.132;2023-06-26T12:56:57;30.89;23.53
71396;DHT22;59888;55.814;37.132;2023-06-26T12:59:28;31.19;23.03
71396;DHT22;59888;55.814;37.132;2023-06-26T13:01:54;31.76;23.53
71396;DHT22;59888;55.814;37.132;2023-06-26T13:04:20;0.00;22.79
71396;DHT22;59888;55.814;37.132;2023-06-26T13:06:46;0.00;21.80
71396;DHT22;59888;55.814;37.132;2023-06-26T13:09:17;36.09;19.94
71396;DHT22;59888;55.814;37.132;2023-06-26T13:11:43;37.67;19.52
71396;DHT22;59888;55.814;37.132;2023-06-26T13:14:10;39.23;18.59
71396;DHT22;59888;55.814;37.132;2023-06-26T13:16:36;40.47;18.00
71396;DHT22;59888;55.814;37.132;2023-06-26T13:19:03;41.74;16.15
71396;DHT22;59888;55.814;37.132;2023-06-26T13:21:29;42.01;14.97
71396;DHT22;59888;55.814;37.132;2023-06-26T13:23:55;40.50;13.64
71396;DHT22;59888;55.814;37.132;2023-06-26T13:26:22;38.97;16.09
71396;DHT22;59888;55.814;37.132;2023-06-26T13:28:49;37.88;16.22
71396;DHT22;59888;55.814;37.132;2023-06-26T13:31:16;38.93;17.80
71396;DHT22;59888;55.814;37.132;2023-06-26T13:33:42;39.23;15.84
71396;DHT22;59888;55.814;37.132;2023-06-26T13:36:08;38.23;16.96
71396;DHT22;59888;55.814;37.132;2023-06-26T13:38:34;38.41;17.87
71396;DHT22;59888;55.814;37.132;2023-06-26T13:41:00;39.79;17.12
71396;DHT22;59888;55.814;37.132;2023-06-26T13:43:27;41.28;16.64
71396;DHT22;59888;55.814;37.132;2023-06-26T13:45:55;41.74;15.23
71396;DHT22;59888;55.814;37.132;2023-06-26T13:48:23;42.46;15.56
71396;DHT22;59888;55.814;37.132;2023-06-26T13:50:52;43.74;15.30
71396;DHT22;59888;55.814;37.132;2023-06-26T13:53:19;0.00;14.72
71396;DHT22;59888;55.814;37.132;2023-06-26T13:55:45;0.00;0.00
71396;DHT22;59888;55.814;37.132;2023-06-26T13:58:11;0.00;0.00
71396;DHT22;59888;55.814;37.132;2023-06-26T14:00:39;0.00;0.00
71396;DHT22;59888;55.814;37.132;2023-06-26T14:03:05;0.00;0.00
71396;DHT22;59888;55.814;37.132;2023-06-26T14:05:36;0.00;0.00
71396;DHT22;59888;55.814;37.132;2023-06-26T14:08:05;0.00;0.00
71396;DHT22;59888;55.814;37.132;2023-06-26T14:10:31;0.00;0.00
71396;DHT22;59888;55.814;37.132;2023-06-26T14:13:02;0.00;0.00
71396;DHT22;59888;55.814;37.132;2023-06-26T14:15:29;48.14;0.00
71396;DHT22;59888;55.814;37.132;2023-06-26T14:17:55;0.00;0.00
71396;DHT22;59888;55.814;37.132;2023-06-26T14:20:26;45.34;11.30
71396;DHT22;59888;55.814;37.132;2023-06-26T14:22:53;43.64;13.20
71396;DHT22;59888;55.814;37.132;2023-06-26T14:25:19;42.08;13.86
71396;DHT22;59888;55.814;37.132;2023-06-26T14:27:45;40.89;14.51
71396;DHT22;59888;55.814;37.132;2023-06-26T14:30:12;39.80;15.16
71396;DHT22;59888;55.814;37.132;2023-06-26T14:32:38;38.64;15.97
71396;DHT22;59888;55.814;37.132;2023-06-26T14:35:04;37.69;16.56
71396;DHT22;59888;55.814;37.132;2023-06-26T14:37:32;36.59;17.05
71396;DHT22;59888;55.814;37.132;2023-06-26T14:39:58;35.72;17.78
71396;DHT22;59888;55.814;37.132;2023-06-26T14:42:24;34.97;18.31
71396;DHT22;59888;55.814;37.132;2023-06-26T14:44:50;34.30;18.77
71396;DHT22;59888;55.814;37.132;2023-06-26T14:47:17;33.78;19.04
71396;DHT22;59888;55.814;37.132;2023-06-26T14:49:43;33.26;19.42
71396;DHT22;59888;55.814;37.132;2023-06-26T14:52:09;32.87;19.86
71396;DHT22;59888;55.814;37.132;2023-06-26T14:54:35;32.48;20.15
71396;DHT22;59888;55.814;37.132;2023-06-26T14:57:06;32.12;20.41
71396;DHT22;59888;55.814;37.132;2023-06-26T14:59:37;31.82;20.55
71396;DHT22;59888;55.814;37.132;2023-06-26T15:02:04;31.55;21.04
71396;DHT22;59888;55.814;37.132;2023-06-26T15:04:31;31.30;21.27
71396;DHT22;59888;55.814;37.132;2023-06-26T15:06:58;31.09;21.61
71396;DHT22;59888;55.814;37.132;2023-06-26T15:09:34;30.83;21.51
71396;DHT22;59888;55.814;37.132;2023-06-26T15:12:00;30.61;22.12
71396;DHT22;59888;55.814;37.132;2023-06-26T15:14:27;30.41;22.38
71396;DHT22;59888;55.814;37.132;2023-06-26T15:16:53;30.28;22.61
71396;DHT22;59888;55.814;37.132;2023-06-26T15:19:24;30.45;23.17
71396;DHT22;59888;55.814;37.132;2023-06-26T15:21:50;31.84;22.73
71396;DHT22;59888;55.814;37.132;2023-06-26T15:24:15;33.20;21.48
71396;DHT22;59888;55.814;37.132;2023-06-26T15:26:41;33.80;21.05
71396;DHT22;59888;55.814;37.132;2023-06-26T15:29:07;35.13;20.10
71396;DHT22;59888;55.814;37.132;2023-06-26T15:31:33;36.51;18.78
71396;DHT22;59888;55.814;37.132;2023-06-26T15:33:59;37.32;18.52